sensor_id;sensor_type;location;lat;lon;timestamp;pressure;altitude;pressure_sealevel;temperature;humidity
49729;BME280;66333;49.798;10.968;2023-02-11T00:01:20;100002.06;;;5.90;55.04
49729;BME280;66333;49.798;10.968;2023-02-11T00:03:49;99988.28;;;5.88;55.22
49729;BME280;66333;49.798;10.968;2023-02-11T00:06:23;100006.66;;;5.85;55.20
49729;BME280;66333;49.798;10.968;2023-02-11T00:08:50;99999.88;;;5.82;55.22
49729;BME280;66333;49.798;10.968;2023-02-11T00:11:20;99995.50;;;5.83;55.15
49729;BME280;66333;49.798;10.968;2023-02-11T00:13:47;100001.69;;;5.80;55.44
49729;BME280;66333;49.798;10.968;2023-02-11T00:16:18;99993.88;;;5.80;55.57
49729;BME280;66333;49.798;10.968;2023-02-11T00:18:46;99994.88;;;5.78;55.40
49729;BME280;66333;49.798;10.968;2023-02-11T00:21:15;99995.81;;;5.77;55.62
49729;BME280;66333;49.798;10.968;2023-02-11T00:23:45;100001.94;;;5.76;55.28
49729;BME280;66333;49.798;10.968;2023-02-11T00:26:13;100008.06;;;5.75;55.46
49729;BME280;66333;49.798;10.968;2023-02-11T00:28:40;100017.63;;;5.74;55.34
49729;BME280;66333;49.798;10.968;2023-02-11T00:31:07;100022.00;;;5.74;55.30
49729;BME280;66333;49.798;10.968;2023-02-11T00:33:35;100025.50;;;5.73;55.28
49729;BME280;66333;49.798;10.968;2023-02-11T00:36:07;100006.53;;;5.71;55.54
49729;BME280;66333;49.798;10.968;2023-02-11T00:38:36;100021.38;;;5.69;55.54
49729;BME280;66333;49.798;10.968;2023-02-11T00:41:05;100023.97;;;5.69;55.57
49729;BME280;66333;49.798;10.968;2023-02-11T00:43:34;100015.41;;;5.66;55.55
49729;BME280;66333;49.798;10.968;2023-02-11T00:46:03;100001.66;;;5.64;55.31
49729;BME280;66333;49.798;10.968;2023-02-11T00:48:32;100003.34;;;5.65;55.63
49729;BME280;66333;49.798;10.968;2023-02-11T00:50:59;99998.13;;;5.65;55.49
49729;BME280;66333;49.798;10.968;2023-02-11T00:53:29;99984.44;;;5.62;55.80
49729;BME280;66333;49.798;10.968;2023-02-11T00:55:57;99984.50;;;5.60;55.77
49729;BME280;66333;49.798;10.968;2023-02-11T00:58:27;99991.38;;;5.61;55.90
49729;BME280;66333;49.798;10.968;2023-02-11T01:00:55;100000.13;;;5.60;55.85
49729;BME280;66333;49.798;10.968;2023-02-11T01:03:25;99993.22;;;5.59;55.55
49729;BME280;66333;49.798;10.968;2023-02-11T01:05:52;99997.75;;;5.56;55.50
49729;BME280;66333;49.798;10.968;2023-02-11T01:08:20;100003.81;;;5.56;55.85
49729;BME280;66333;49.798;10.968;2023-02-11T01:10:54;99982.16;;;5.56;55.50
49729;BME280;66333;49.798;10.968;2023-02-11T01:13:22;99981.28;;;5.55;55.75
49729;BME280;66333;49.798;10.968;2023-02-11T01:15:51;99969.22;;;5.54;55.63
49729;BME280;66333;49.798;10.968;2023-02-11T01:18:19;99958.91;;;5.53;55.95
49729;BME280;66333;49.798;10.968;2023-02-11T01:20:46;99959.81;;;5.52;55.59
49729;BME280;66333;49.798;10.968;2023-02-11T01:23:16;99963.34;;;5.51;55.78
49729;BME280;66333;49.798;10.968;2023-02-11T01:25:44;99962.44;;;5.52;55.77
49729;BME280;66333;49.798;10.968;2023-02-11T01:28:15;99971.22;;;5.49;55.92
49729;BME280;66333;49.798;10.968;2023-02-11T01:30:46;99970.38;;;5.49;55.57
49729;BME280;66333;49.798;10.968;2023-02-11T01:33:27;99965.28;;;5.47;55.88
49729;BME280;66333;49.798;10.968;2023-02-11T01:36:07;99954.09;;;5.45;55.84
49729;BME280;66333;49.798;10.968;2023-02-11T01:38:35;99964.50;;;5.45;55.91
49729;BME280;66333;49.798;10.968;2023-02-11T01:41:06;99951.56;;;5.44;55.94
49729;BME280;66333;49.798;10.968;2023-02-11T01:43:35;99939.50;;;5.43;56.09
49729;BME280;66333;49.798;10.968;2023-02-11T01:46:13;99944.78;;;5.41;56.07
49729;BME280;66333;49.798;10.968;2023-02-11T01:48:46;99956.09;;;5.40;55.99
49729;BME280;66333;49.798;10.968;2023-02-11T01:51:18;99949.06;;;5.42;56.02
49729;BME280;66333;49.798;10.968;2023-02-11T01:53:49;99940.50;;;5.40;55.82
49729;BME280;66333;49.798;10.968;2023-02-11T01:56:37;99932.84;;;5.37;55.99
49729;BME280;66333;49.798;10.968;2023-02-11T01:59:40;99937.13;;;5.38;55.67
49729;BME280;66333;49.798;10.968;2023-02-11T02:02:13;99935.44;;;5.37;56.03
49729;BME280;66333;49.798;10.968;2023-02-11T02:04:48;99926.06;;;5.34;56.20
49729;BME280;66333;49.798;10.968;2023-02-11T02:07:25;99925.22;;;5.34;56.20
49729;BME280;66333;49.798;10.968;2023-02-11T02:10:00;99911.47;;;5.32;56.17
49729;BME280;66333;49.798;10.968;2023-02-11T02:12:29;99909.78;;;5.31;55.87
49729;BME280;66333;49.798;10.968;2023-02-11T02:15:20;99914.97;;;5.31;56.22
49729;BME280;66333;49.798;10.968;2023-02-11T02:17:56;99908.94;;;5.30;55.95
49729;BME280;66333;49.798;10.968;2023-02-11T02:23:39;99909.00;;;5.29;56.11
49729;BME280;66333;49.798;10.968;2023-02-11T02:26:45;99905.56;;;5.28;56.22
49729;BME280;66333;49.798;10.968;2023-02-11T02:35:23;99884.94;;;5.25;56.15
49729;BME280;66333;49.798;10.968;2023-02-11T02:37:56;99874.72;;;5.22;56.31
49729;BME280;66333;49.798;10.968;2023-02-11T02:40:29;99877.22;;;5.24;56.58
49729;BME280;66333;49.798;10.968;2023-02-11T02:43:01;99884.28;;;5.22;56.22
49729;BME280;66333;49.798;10.968;2023-02-11T02:45:28;99883.44;;;5.21;56.22
49729;BME280;66333;49.798;10.968;2023-02-11T02:47:57;99888.63;;;5.21;56.20
49729;BME280;66333;49.798;10.968;2023-02-11T02:50:33;99879.13;;;5.20;56.34
49729;BME280;66333;49.798;10.968;2023-02-11T02:53:14;99880.88;;;5.20;56.22
49729;BME280;66333;49.798;10.968;2023-02-11T02:55:56;99867.16;;;5.18;56.32
49729;BME280;66333;49.798;10.968;2023-02-11T02:58:47;99862.78;;;5.18;56.30
49729;BME280;66333;49.798;10.968;2023-02-11T03:01:41;99863.72;;;5.17;56.59
49729;BME280;66333;49.798;10.968;2023-02-11T03:04:16;99860.28;;;5.17;56.36
49729;BME280;66333;49.798;10.968;2023-02-11T03:06:51;99870.66;;;5.17;56.56
49729;BME280;66333;49.798;10.968;2023-02-11T03:09:25;99883.75;;;5.15;56.61
49729;BME280;66333;49.798;10.968;2023-02-11T03:11:58;99884.59;;;5.16;56.71
49729;BME280;66333;49.798;10.968;2023-02-11T03:14:26;99882.91;;;5.15;56.67
49729;BME280;66333;49.798;10.968;2023-02-11T03:16:56;99877.78;;;5.13;56.65
49729;BME280;66333;49.798;10.968;2023-02-11T03:19:28;99874.31;;;5.13;56.63
49729;BME280;66333;49.798;10.968;2023-02-11T03:22:09;99872.66;;;5.12;56.72
49729;BME280;66333;49.798;10.968;2023-02-11T03:24:38;99869.22;;;5.11;56.48
49729;BME280;66333;49.798;10.968;2023-02-11T03:27:11;99870.06;;;5.12;56.35
49729;BME280;66333;49.798;10.968;2023-02-11T03:29:42;99881.22;;;5.14;56.41
49729;BME280;66333;49.798;10.968;2023-02-11T03:32:17;99883.03;;;5.12;56.67
49729;BME280;66333;49.798;10.968;2023-02-11T03:34:53;99880.53;;;5.10;56.55
49729;BME280;66333;49.798;10.968;2023-02-11T03:37:26;99872.81;;;5.08;56.47
49729;BME280;66333;49.798;10.968;2023-02-11T03:39:59;99873.72;;;5.07;56.69
49729;BME280;66333;49.798;10.968;2023-02-11T03:42:31;99871.13;;;5.07;56.81
49729;BME280;66333;49.798;10.968;2023-02-11T03:45:05;99866.03;;;5.06;56.59
49729;BME280;66333;49.798;10.968;2023-02-11T03:47:37;99864.25;;;5.06;56.48
49729;BME280;66333;49.798;10.968;2023-02-11T03:50:10;99861.66;;;5.06;56.97
49729;BME280;66333;49.798;10.968;2023-02-11T03:52:40;99873.81;;;5.06;56.95
49729;BME280;66333;49.798;10.968;2023-02-11T03:55:14;99870.38;;;5.05;57.06
49729;BME280;66333;49.798;10.968;2023-02-11T03:57:43;99869.59;;;5.03;56.68
49729;BME280;66333;49.798;10.968;2023-02-11T04:00:12;99874.78;;;5.03;56.76
49729;BME280;66333;49.798;10.968;2023-02-11T04:02:40;99873.03;;;5.04;56.76
49729;BME280;66333;49.798;10.968;2023-02-11T04:05:10;99862.72;;;5.02;56.87
49729;BME280;66333;49.798;10.968;2023-02-11T04:07:40;99848.97;;;5.00;56.70
49729;BME280;66333;49.798;10.968;2023-02-11T04:10:10;99848.06;;;5.01;57.02
49729;BME280;66333;49.798;10.968;2023-02-11T04:12:37;99832.47;;;5.01;57.00
49729;BME280;66333;49.798;10.968;2023-02-11T04:15:08;99816.13;;;4.99;56.79
49729;BME280;66333;49.798;10.968;2023-02-11T04:17:36;99796.28;;;4.98;56.87
49729;BME280;66333;49.798;10.968;2023-02-11T04:20:04;99795.34;;;4.99;57.07
49729;BME280;66333;49.798;10.968;2023-02-11T04:22:32;99778.09;;;4.98;57.14
49729;BME280;66333;49.798;10.968;2023-02-11T04:25:06;99786.81;;;4.97;56.80
49729;BME280;66333;49.798;10.968;2023-02-11T04:27:34;99818.81;;;4.98;56.84
49729;BME280;66333;49.798;10.968;2023-02-11T04:30:07;99814.59;;;4.95;57.22
49729;BME280;66333;49.798;10.968;2023-02-11T04:32:36;99811.94;;;4.97;57.07
49729;BME280;66333;49.798;10.968;2023-02-11T04:35:05;99804.22;;;4.95;56.99
49729;BME280;66333;49.798;10.968;2023-02-11T04:37:33;99820.66;;;4.96;57.00
49729;BME280;66333;49.798;10.968;2023-02-11T04:40:05;99830.19;;;4.95;56.79
49729;BME280;66333;49.798;10.968;2023-02-11T04:42:34;99818.13;;;4.94;57.20
49729;BME280;66333;49.798;10.968;2023-02-11T04:45:03;99818.13;;;4.94;57.08
49729;BME280;66333;49.798;10.968;2023-02-11T04:47:29;99818.13;;;4.94;57.26
49729;BME280;66333;49.798;10.968;2023-02-11T04:49:56;99825.91;;;4.94;56.96
49729;BME280;66333;49.798;10.968;2023-02-11T04:52:23;99827.66;;;4.94;57.31
49729;BME280;66333;49.798;10.968;2023-02-11T04:54:54;99833.88;;;4.91;56.98
49729;BME280;66333;49.798;10.968;2023-02-11T04:57:22;99817.53;;;4.89;57.46
49729;BME280;66333;49.798;10.968;2023-02-11T04:59:49;99812.25;;;4.91;57.39
49729;BME280;66333;49.798;10.968;2023-02-11T05:02:17;99814.84;;;4.91;57.21
49729;BME280;66333;49.798;10.968;2023-02-11T05:04:46;99816.63;;;4.90;57.33
49729;BME280;66333;49.798;10.968;2023-02-11T05:07:15;99807.16;;;4.89;57.33
49729;BME280;66333;49.798;10.968;2023-02-11T05:09:43;99807.22;;;4.88;57.45
49729;BME280;66333;49.798;10.968;2023-02-11T05:12:12;99796.00;;;4.87;57.24
49729;BME280;66333;49.798;10.968;2023-02-11T05:14:43;99771.72;;;4.88;57.47
49729;BME280;66333;49.798;10.968;2023-02-11T05:17:10;99768.31;;;4.86;57.14
49729;BME280;66333;49.798;10.968;2023-02-11T05:19:37;99771.72;;;4.88;57.25
49729;BME280;66333;49.798;10.968;2023-02-11T05:22:05;99775.16;;;4.89;57.47
49729;BME280;66333;49.798;10.968;2023-02-11T05:24:34;99764.06;;;4.85;57.43
49729;BME280;66333;49.798;10.968;2023-02-11T05:27:03;99767.50;;;4.86;57.40
49729;BME280;66333;49.798;10.968;2023-02-11T05:29:32;99776.13;;;4.86;57.20
49729;BME280;66333;49.798;10.968;2023-02-11T05:31:59;99786.59;;;4.85;57.58
49729;BME280;66333;49.798;10.968;2023-02-11T05:34:28;99772.78;;;4.84;57.43
49729;BME280;66333;49.798;10.968;2023-02-11T05:36:58;99762.47;;;4.82;57.54
49729;BME280;66333;49.798;10.968;2023-02-11T05:39:24;99765.91;;;4.83;57.22
49729;BME280;66333;49.798;10.968;2023-02-11T05:41:52;99783.25;;;4.82;57.27
49729;BME280;66333;49.798;10.968;2023-02-11T05:44:19;99790.94;;;4.84;57.54
49729;BME280;66333;49.798;10.968;2023-02-11T05:46:47;99799.81;;;4.80;57.17
49729;BME280;66333;49.798;10.968;2023-02-11T05:49:22;99803.19;;;4.82;57.15
49729;BME280;66333;49.798;10.968;2023-02-11T05:51:48;99806.69;;;4.81;57.41
49729;BME280;66333;49.798;10.968;2023-02-11T05:54:17;99800.66;;;4.80;57.48
49729;BME280;66333;49.798;10.968;2023-02-11T05:56:45;99806.69;;;4.81;57.38
49729;BME280;66333;49.798;10.968;2023-02-11T05:59:15;99805.94;;;4.79;57.27
49729;BME280;66333;49.798;10.968;2023-02-11T06:01:43;99803.34;;;4.79;57.22
49729;BME280;66333;49.798;10.968;2023-02-11T06:04:12;99796.44;;;4.78;57.36
49729;BME280;66333;49.798;10.968;2023-02-11T06:06:41;99786.97;;;4.77;57.35
49729;BME280;66333;49.798;10.968;2023-02-11T06:09:09;99790.50;;;4.76;57.16
49729;BME280;66333;49.798;10.968;2023-02-11T06:11:37;99786.06;;;4.78;57.18
49729;BME280;66333;49.798;10.968;2023-02-11T06:14:04;99782.72;;;4.76;57.14
49729;BME280;66333;49.798;10.968;2023-02-11T06:16:35;99772.41;;;4.74;57.45
49729;BME280;66333;49.798;10.968;2023-02-11T06:19:03;99768.03;;;4.75;57.21
49729;BME280;66333;49.798;10.968;2023-02-11T06:21:30;99780.19;;;4.74;57.67
49729;BME280;66333;49.798;10.968;2023-02-11T06:24:04;99780.19;;;4.74;57.46
49729;BME280;66333;49.798;10.968;2023-02-11T06:26:33;99782.88;;;4.73;57.21
49729;BME280;66333;49.798;10.968;2023-02-11T06:29:01;99785.59;;;4.70;57.48
49729;BME280;66333;49.798;10.968;2023-02-11T06:31:30;99780.97;;;4.59;57.08
49729;BME280;66333;49.798;10.968;2023-02-11T06:33:57;99793.19;;;4.57;57.60
49729;BME280;66333;49.798;10.968;2023-02-11T06:36:28;99809.44;;;4.61;57.14
49729;BME280;66333;49.798;10.968;2023-02-11T06:38:54;99811.91;;;4.64;57.51
49729;BME280;66333;49.798;10.968;2023-02-11T06:41:27;99804.69;;;4.51;57.48
49729;BME280;66333;49.798;10.968;2023-02-11T06:44:01;99807.38;;;4.67;57.53
49729;BME280;66333;49.798;10.968;2023-02-11T06:46:29;99801.63;;;4.78;57.36
49729;BME280;66333;49.798;10.968;2023-02-11T06:48:59;99803.00;;;4.85;58.09
49729;BME280;66333;49.798;10.968;2023-02-11T06:51:27;99809.56;;;4.92;57.89
49729;BME280;66333;49.798;10.968;2023-02-11T06:53:58;99808.63;;;5.10;57.35
49729;BME280;66333;49.798;10.968;2023-02-11T06:56:27;99796.25;;;5.16;57.80
49729;BME280;66333;49.798;10.968;2023-02-11T06:58:56;99791.13;;;5.14;57.76
49729;BME280;66333;49.798;10.968;2023-02-11T07:01:25;99798.22;;;5.10;58.11
49729;BME280;66333;49.798;10.968;2023-02-11T07:03:53;99805.28;;;5.08;58.33
49729;BME280;66333;49.798;10.968;2023-02-11T07:06:24;99788.00;;;5.07;58.24
49729;BME280;66333;49.798;10.968;2023-02-11T07:08:54;99797.47;;;5.08;58.14
49729;BME280;66333;49.798;10.968;2023-02-11T07:11:24;99794.88;;;5.08;58.06
49729;BME280;66333;49.798;10.968;2023-02-11T07:14:00;99803.44;;;5.10;58.17
49729;BME280;66333;49.798;10.968;2023-02-11T07:16:28;99811.22;;;5.10;58.33
49729;BME280;66333;49.798;10.968;2023-02-11T07:18:56;99808.47;;;5.14;58.29
49729;BME280;66333;49.798;10.968;2023-02-11T07:21:24;99811.97;;;5.13;58.31
49729;BME280;66333;49.798;10.968;2023-02-11T07:23:52;99812.88;;;5.12;58.17
49729;BME280;66333;49.798;10.968;2023-02-11T07:26:22;99820.69;;;5.12;58.43
49729;BME280;66333;49.798;10.968;2023-02-11T07:28:52;99832.75;;;5.13;58.35
49729;BME280;66333;49.798;10.968;2023-02-11T07:31:21;99817.16;;;5.13;58.33
49729;BME280;66333;49.798;10.968;2023-02-11T07:33:48;99830.16;;;5.13;58.53
49729;BME280;66333;49.798;10.968;2023-02-11T07:36:16;99828.56;;;5.10;58.44
49729;BME280;66333;49.798;10.968;2023-02-11T07:38:43;99826.81;;;5.10;58.45
49729;BME280;66333;49.798;10.968;2023-02-11T07:41:12;99819.94;;;5.09;58.29
49729;BME280;66333;49.798;10.968;2023-02-11T07:43:41;99821.59;;;5.10;58.24
49729;BME280;66333;49.798;10.968;2023-02-11T07:46:13;99828.47;;;5.12;58.25
49729;BME280;66333;49.798;10.968;2023-02-11T07:48:41;99841.47;;;5.12;58.34
49729;BME280;66333;49.798;10.968;2023-02-11T07:51:11;99841.34;;;5.15;58.57
49729;BME280;66333;49.798;10.968;2023-02-11T07:53:39;99836.28;;;5.12;58.24
49729;BME280;66333;49.798;10.968;2023-02-11T07:56:08;99839.78;;;5.10;58.20
49729;BME280;66333;49.798;10.968;2023-02-11T07:58:36;99847.50;;;5.12;58.54
49729;BME280;66333;49.798;10.968;2023-02-11T08:01:05;99834.59;;;5.10;58.62
49729;BME280;66333;49.798;10.968;2023-02-11T08:03:34;99837.13;;;5.12;58.43
49729;BME280;66333;49.798;10.968;2023-02-11T08:06:02;99834.59;;;5.10;58.30
49729;BME280;66333;49.798;10.968;2023-02-11T08:08:30;99832.44;;;5.19;58.52
49729;BME280;66333;49.798;10.968;2023-02-11T08:10:58;99830.28;;;5.27;58.34
49729;BME280;66333;49.798;10.968;2023-02-11T08:13:26;99829.63;;;5.23;58.17
49729;BME280;66333;49.798;10.968;2023-02-11T08:15:56;99828.09;;;5.19;58.30
49729;BME280;66333;49.798;10.968;2023-02-11T08:18:23;99835.03;;;5.19;58.36
49729;BME280;66333;49.798;10.968;2023-02-11T08:20:58;99835.13;;;5.17;58.68
49729;BME280;66333;49.798;10.968;2023-02-11T08:23:29;99829.00;;;5.18;58.44
49729;BME280;66333;49.798;10.968;2023-02-11T08:26:00;99808.47;;;5.14;58.56
49729;BME280;66333;49.798;10.968;2023-02-11T08:28:28;99816.19;;;5.15;58.54
49729;BME280;66333;49.798;10.968;2023-02-11T08:30:56;99813.69;;;5.14;58.64
49729;BME280;66333;49.798;10.968;2023-02-11T08:33:24;99823.16;;;5.15;58.60
49729;BME280;66333;49.798;10.968;2023-02-11T08:36:07;99818.03;;;5.13;58.73
49729;BME280;66333;49.798;10.968;2023-02-11T08:38:34;99818.88;;;5.14;58.93
49729;BME280;66333;49.798;10.968;2023-02-11T08:41:04;99818.88;;;5.14;58.64
49729;BME280;66333;49.798;10.968;2023-02-11T08:43:31;99822.22;;;5.16;58.78
49729;BME280;66333;49.798;10.968;2023-02-11T08:45:58;99818.69;;;5.17;58.90
49729;BME280;66333;49.798;10.968;2023-02-11T08:48:26;99822.22;;;5.16;58.58
49729;BME280;66333;49.798;10.968;2023-02-11T08:50:55;99832.63;;;5.16;58.95
49729;BME280;66333;49.798;10.968;2023-02-11T08:53:22;99839.66;;;5.14;58.64
49729;BME280;66333;49.798;10.968;2023-02-11T08:55:49;99835.97;;;5.18;58.80
49729;BME280;66333;49.798;10.968;2023-02-11T08:58:18;99836.88;;;5.17;58.66
49729;BME280;66333;49.798;10.968;2023-02-11T09:00:45;99840.31;;;5.17;58.66
49729;BME280;66333;49.798;10.968;2023-02-11T09:03:14;99835.97;;;5.18;58.61
49729;BME280;66333;49.798;10.968;2023-02-11T09:05:46;99829.09;;;5.17;58.97
49729;BME280;66333;49.798;10.968;2023-02-11T09:08:20;99842.09;;;5.17;58.82
49729;BME280;66333;49.798;10.968;2023-02-11T09:10:50;99837.63;;;5.19;59.01
49729;BME280;66333;49.798;10.968;2023-02-11T09:13:18;99842.84;;;5.19;58.88
49729;BME280;66333;49.798;10.968;2023-02-11T09:15:44;99842.00;;;5.18;58.78
49729;BME280;66333;49.798;10.968;2023-02-11T09:18:12;99837.81;;;5.16;58.90
49729;BME280;66333;49.798;10.968;2023-02-11T09:20:40;99841.16;;;5.18;58.72
49729;BME280;66333;49.798;10.968;2023-02-11T09:23:08;99837.63;;;5.19;58.54
49729;BME280;66333;49.798;10.968;2023-02-11T09:25:39;99830.78;;;5.18;58.84
49729;BME280;66333;49.798;10.968;2023-02-11T09:28:08;99829.94;;;5.17;58.57
49729;BME280;66333;49.798;10.968;2023-02-11T09:30:37;99829.09;;;5.17;58.73
49729;BME280;66333;49.798;10.968;2023-02-11T09:33:06;99834.28;;;5.17;58.86
49729;BME280;66333;49.798;10.968;2023-02-11T09:35:33;99832.53;;;5.17;58.85
49729;BME280;66333;49.798;10.968;2023-02-11T09:38:02;99840.31;;;5.17;58.82
49729;BME280;66333;49.798;10.968;2023-02-11T09:40:32;99834.28;;;5.17;58.57
49729;BME280;66333;49.798;10.968;2023-02-11T09:43:05;99829.09;;;5.17;59.01
49729;BME280;66333;49.798;10.968;2023-02-11T09:45:35;99827.41;;;5.16;59.13
49729;BME280;66333;49.798;10.968;2023-02-11T09:48:04;99817.03;;;5.16;58.73
49729;BME280;66333;49.798;10.968;2023-02-11T09:50:39;99833.38;;;5.18;59.32
49729;BME280;66333;49.798;10.968;2023-02-11T09:53:12;99840.69;;;5.27;58.88
49729;BME280;66333;49.798;10.968;2023-02-11T09:55:42;99842.34;;;5.28;59.00
49729;BME280;66333;49.798;10.968;2023-02-11T09:58:15;99844.19;;;5.26;59.25
49729;BME280;66333;49.798;10.968;2023-02-11T10:00:47;99852.94;;;5.25;59.40
49729;BME280;66333;49.798;10.968;2023-02-11T10:03:37;99854.78;;;5.23;59.34
49729;BME280;66333;49.798;10.968;2023-02-11T10:06:35;99860.09;;;5.20;59.41
49729;BME280;66333;49.798;10.968;2023-02-11T10:09:17;99856.75;;;5.18;59.29
49729;BME280;66333;49.798;10.968;2023-02-11T10:11:52;99845.53;;;5.17;59.44
49729;BME280;66333;49.798;10.968;2023-02-11T10:17:37;99854.16;;;5.18;59.19
49729;BME280;66333;49.798;10.968;2023-02-11T10:20:22;99856.91;;;5.15;59.41
49729;BME280;66333;49.798;10.968;2023-02-11T10:22:57;99858.59;;;5.16;59.36
49729;BME280;66333;49.798;10.968;2023-02-11T10:25:37;99867.16;;;5.18;59.44
49729;BME280;66333;49.798;10.968;2023-02-11T10:28:11;99862.13;;;5.15;59.15
49729;BME280;66333;49.798;10.968;2023-02-11T10:30:54;99866.41;;;5.16;59.45
49729;BME280;66333;49.798;10.968;2023-02-11T10:33:27;99849.13;;;5.15;59.30
49729;BME280;66333;49.798;10.968;2023-02-11T10:35:58;99843.00;;;5.16;59.56
49729;BME280;66333;49.798;10.968;2023-02-11T10:38:26;99852.56;;;5.15;59.21
49729;BME280;66333;49.798;10.968;2023-02-11T10:40:54;99860.34;;;5.15;59.35
49729;BME280;66333;49.798;10.968;2023-02-11T10:43:25;99855.06;;;5.17;59.51
49729;BME280;66333;49.798;10.968;2023-02-11T10:45:59;99861.13;;;5.17;59.30
49729;BME280;66333;49.798;10.968;2023-02-11T10:48:40;99860.28;;;5.17;59.23
49729;BME280;66333;49.798;10.968;2023-02-11T10:51:15;99865.47;;;5.17;59.38
49729;BME280;66333;49.798;10.968;2023-02-11T10:53:44;99872.34;;;5.18;59.31
49729;BME280;66333;49.798;10.968;2023-02-11T10:56:20;99869.53;;;5.38;59.70
49729;BME280;66333;49.798;10.968;2023-02-11T10:58:56;99863.19;;;5.44;59.18
49729;BME280;66333;49.798;10.968;2023-02-11T11:01:38;99857.34;;;5.40;59.18
49729;BME280;66333;49.798;10.968;2023-02-11T11:04:36;99848.09;;;5.34;59.38
49729;BME280;66333;49.798;10.968;2023-02-11T11:07:15;99852.63;;;5.31;59.64
49729;BME280;66333;49.798;10.968;2023-02-11T11:09:47;99850.00;;;5.31;59.75
49729;BME280;66333;49.798;10.968;2023-02-11T11:12:35;99855.25;;;5.29;59.70
49729;BME280;66333;49.798;10.968;2023-02-11T11:15:18;99852.00;;;5.26;59.66
49729;BME280;66333;49.798;10.968;2023-02-11T11:17:49;99853.69;;;5.27;59.77
49729;BME280;66333;49.798;10.968;2023-02-11T11:20:26;99859.78;;;5.26;59.81
49729;BME280;66333;49.798;10.968;2023-02-11T11:23:10;99846.06;;;5.24;59.67
49729;BME280;66333;49.798;10.968;2023-02-11T11:26:01;99845.31;;;5.22;60.01
49729;BME280;66333;49.798;10.968;2023-02-11T11:28:48;99846.06;;;5.24;59.67
49729;BME280;66333;49.798;10.968;2023-02-11T11:31:19;99833.97;;;5.23;59.71
49729;BME280;66333;49.798;10.968;2023-02-11T11:33:51;99839.09;;;5.24;60.14
49729;BME280;66333;49.798;10.968;2023-02-11T11:36:22;99844.38;;;5.23;60.03
49729;BME280;66333;49.798;10.968;2023-02-11T11:38:57;99837.50;;;5.22;60.05
49729;BME280;66333;49.798;10.968;2023-02-11T11:41:29;99838.34;;;5.22;59.81
49729;BME280;66333;49.798;10.968;2023-02-11T11:44:01;99847.91;;;5.22;59.92
49729;BME280;66333;49.798;10.968;2023-02-11T11:46:34;99842.69;;;5.22;59.66
49729;BME280;66333;49.798;10.968;2023-02-11T11:49:14;99833.97;;;5.23;60.14
49729;BME280;66333;49.798;10.968;2023-02-11T11:51:50;99832.66;;;5.31;59.83
49729;BME280;66333;49.798;10.968;2023-02-11T11:54:19;99836.09;;;5.32;60.30
49729;BME280;66333;49.798;10.968;2023-02-11T11:56:52;99837.25;;;5.26;61.60
49729;BME280;66333;49.798;10.968;2023-02-11T11:59:22;99843.94;;;5.15;62.49
49729;BME280;66333;49.798;10.968;2023-02-11T12:02:09;99843.31;;;5.09;62.54
49729;BME280;66333;49.798;10.968;2023-02-11T12:07:55;99838.81;;;5.13;62.47
49729;BME280;66333;49.798;10.968;2023-02-11T12:10:49;99820.53;;;5.15;62.17
49729;BME280;66333;49.798;10.968;2023-02-11T12:13:29;99828.16;;;5.18;61.75
49729;BME280;66333;49.798;10.968;2023-02-11T12:16:11;99822.88;;;5.19;61.56
49729;BME280;66333;49.798;10.968;2023-02-11T12:21:48;99821.13;;;5.20;61.49
49729;BME280;66333;49.798;10.968;2023-02-11T12:24:39;99825.56;;;5.18;61.73
49729;BME280;66333;49.798;10.968;2023-02-11T12:27:14;99817.69;;;5.19;61.56
49729;BME280;66333;49.798;10.968;2023-02-11T12:29:56;99818.53;;;5.20;61.57
49729;BME280;66333;49.798;10.968;2023-02-11T12:32:34;99822.06;;;5.19;61.67
49729;BME280;66333;49.798;10.968;2023-02-11T12:35:16;99819.38;;;5.20;61.23
49729;BME280;66333;49.798;10.968;2023-02-11T12:38:08;99811.84;;;5.16;61.29
49729;BME280;66333;49.798;10.968;2023-02-11T12:40:45;99811.66;;;5.19;61.33
49729;BME280;66333;49.798;10.968;2023-02-11T12:43:24;99796.06;;;5.19;61.55
49729;BME280;66333;49.798;10.968;2023-02-11T12:46:35;99799.59;;;5.18;61.27
49729;BME280;66333;49.798;10.968;2023-02-11T12:49:21;99799.59;;;5.18;61.25
49729;BME280;66333;49.798;10.968;2023-02-11T12:52:13;99806.47;;;5.19;61.05
49729;BME280;66333;49.798;10.968;2023-02-11T12:55:01;99804.63;;;5.21;61.07
49729;BME280;66333;49.798;10.968;2023-02-11T12:57:35;99799.59;;;5.18;61.37
49729;BME280;66333;49.798;10.968;2023-02-11T13:00:06;99795.22;;;5.18;61.09
49729;BME280;66333;49.798;10.968;2023-02-11T13:02:44;99790.78;;;5.20;61.32
49729;BME280;66333;49.798;10.968;2023-02-11T13:05:22;99785.69;;;5.19;61.04
49729;BME280;66333;49.798;10.968;2023-02-11T13:07:54;99785.75;;;5.17;61.39
49729;BME280;66333;49.798;10.968;2023-02-11T13:10:28;99785.84;;;5.16;61.09
49729;BME280;66333;49.798;10.968;2023-02-11T13:13:04;99789.19;;;5.18;61.27
49729;BME280;66333;49.798;10.968;2023-02-11T13:15:55;99789.19;;;5.18;61.52
49729;BME280;66333;49.798;10.968;2023-02-11T13:18:48;99793.47;;;5.19;61.29
49729;BME280;66333;49.798;10.968;2023-02-11T13:21:28;99791.03;;;5.16;61.25
49729;BME280;66333;49.798;10.968;2023-02-11T13:24:02;99794.41;;;5.18;61.31
49729;BME280;66333;49.798;10.968;2023-02-11T13:26:41;99784.94;;;5.17;61.33
49729;BME280;66333;49.798;10.968;2023-02-11T13:29:26;99783.25;;;5.16;61.40
49729;BME280;66333;49.798;10.968;2023-02-11T13:32:06;99784.94;;;5.17;61.03
49729;BME280;66333;49.798;10.968;2023-02-11T13:34:54;99782.31;;;5.17;61.14
49729;BME280;66333;49.798;10.968;2023-02-11T13:37:23;99785.84;;;5.16;61.34
49729;BME280;66333;49.798;10.968;2023-02-11T13:39:58;99786.78;;;5.15;61.51
49729;BME280;66333;49.798;10.968;2023-02-11T13:42:26;99787.69;;;5.14;61.14
49729;BME280;66333;49.798;10.968;2023-02-11T13:45:16;99778.06;;;5.16;61.04
49729;BME280;66333;49.798;10.968;2023-02-11T13:47:45;99784.19;;;5.15;61.09